createdAt,value
2022-10-17T00:01:04.402Z,100257.53
2022-10-17T00:03:33.745Z,100258.53
2022-10-17T00:06:06.487Z,100256.44
2022-10-17T00:08:33.839Z,100263.44
2022-10-17T00:11:03.565Z,100259.88
2022-10-17T00:15:58.687Z,100265.59
2022-10-17T00:18:26.172Z,100268.19
2022-10-17T00:20:54.840Z,100268.09
2022-10-17T00:23:22.296Z,100270.41
2022-10-17T00:25:58.841Z,100269.38
2022-10-17T00:28:26.270Z,100270.63
2022-10-17T00:30:56.857Z,100266.78
2022-10-17T00:33:24.185Z,100273.19
2022-10-17T00:35:51.518Z,100267.56
2022-10-17T00:38:20.183Z,100268.66
2022-10-17T00:40:47.871Z,100267.34
2022-10-17T00:43:18.297Z,100269.78
2022-10-17T00:45:45.609Z,100263.50
2022-10-17T00:48:13.152Z,100267.69
2022-10-17T00:50:43.122Z,100257.16
2022-10-17T00:53:10.543Z,100258.63
2022-10-17T00:55:44.330Z,100257.63
2022-10-17T00:58:11.860Z,100265.63
2022-10-17T01:00:39.289Z,100260.84
2022-10-17T01:03:06.672Z,100261.03
2022-10-17T01:05:34.145Z,100260.41
2022-10-17T01:08:02.308Z,100264.81
2022-10-17T01:10:32.412Z,100261.47
2022-10-17T01:13:08.508Z,100264.75
2022-10-17T01:15:45.407Z,100263.94
2022-10-17T01:18:20.760Z,100266.97
2022-10-17T01:21:10.394Z,100271.13
2022-10-17T01:23:59.058Z,100267.81
2022-10-17T01:26:37.013Z,100268.22
2022-10-17T01:29:21.261Z,100257.53
2022-10-17T01:31:54.281Z,100258.13
2022-10-17T01:34:32.268Z,100254.16
2022-10-17T01:37:03.086Z,100245.03
2022-10-17T01:39:38.514Z,100247.13
2022-10-17T01:42:13.789Z,100247.13
2022-10-17T01:44:47.831Z,100251.97
2022-10-17T01:47:19.561Z,100242.84
2022-10-17T01:49:47.740Z,100246.06
2022-10-17T01:52:18.165Z,100242.47
2022-10-17T01:54:47.716Z,100249.63
2022-10-17T01:57:20.592Z,100236.25
2022-10-17T01:59:50.534Z,100228.28
2022-10-17T02:02:20.025Z,100228.44
2022-10-17T02:04:47.592Z,100229.16
2022-10-17T02:07:16.020Z,100218.28
2022-10-17T02:09:43.625Z,100214.84
2022-10-17T02:12:28.083Z,100213.66
2022-10-17T02:15:08.905Z,100213.69
2022-10-17T02:17:45.181Z,100211.88
2022-10-17T02:20:18.812Z,100211.47
2022-10-17T02:22:58.164Z,100214.81
2022-10-17T02:25:32.711Z,100219.16
2022-10-17T02:28:05.300Z,100213.81
2022-10-17T02:30:35.184Z,100211.31
2022-10-17T02:33:08.437Z,100209.06
2022-10-17T02:35:38.041Z,100209.72
2022-10-17T02:38:06.485Z,100208.88
2022-10-17T02:40:34.403Z,100212.00
2022-10-17T02:43:01.841Z,100213.03
2022-10-17T02:45:35.708Z,100204.97
2022-10-17T02:48:10.082Z,100206.19
2022-10-17T02:50:45.403Z,100204.13
2022-10-17T02:53:15.356Z,100200.66
2022-10-17T02:55:48.715Z,100196.72
2022-10-17T02:58:20.163Z,100196.31
2022-10-17T03:00:47.492Z,100195.06
2022-10-17T03:03:22.036Z,100183.72
2022-10-17T03:05:49.416Z,100178.75
2022-10-17T03:08:16.813Z,100189.91
2022-10-17T03:10:44.212Z,100183.50
2022-10-17T03:13:11.806Z,100193.22
2022-10-17T03:15:41.329Z,100193.44
2022-10-17T03:18:09.505Z,100189.06
2022-10-17T03:20:38.373Z,100192.56
2022-10-17T03:23:05.872Z,100185.75
2022-10-17T03:25:33.870Z,100195.50
2022-10-17T03:28:02.027Z,100195.09
2022-10-17T03:30:29.773Z,100192.81
2022-10-17T03:32:58.316Z,100191.34
2022-10-17T03:35:26.033Z,100188.06
2022-10-17T03:37:56.213Z,100195.91
2022-10-17T03:40:24.893Z,100198.81
2022-10-17T03:42:53.065Z,100206.88
2022-10-17T03:45:20.420Z,100203.94
2022-10-17T03:47:48.913Z,100212.66
2022-10-17T03:50:16.606Z,100207.47
2022-10-17T03:52:47.614Z,100201.88
2022-10-17T03:55:16.793Z,100197.34
2022-10-17T03:57:45.593Z,100209.50
2022-10-17T04:00:14.593Z,100218.81
2022-10-17T04:02:42.053Z,100213.22
2022-10-17T04:05:15.050Z,100215.31
2022-10-17T04:07:42.476Z,100220.47
2022-10-17T04:10:11.745Z,100213.84
2022-10-17T04:12:40.530Z,100218.19
2022-10-17T04:15:08.904Z,100221.28
2022-10-17T04:17:38.123Z,100210.75
2022-10-17T04:20:07.118Z,100213.00
2022-10-17T04:22:35.069Z,100208.44
2022-10-17T04:25:03.128Z,100214.47
2022-10-17T04:27:36.060Z,100201.03
2022-10-17T04:30:05.737Z,100199.56
2022-10-17T04:32:37.596Z,100205.34
2022-10-17T04:35:23.293Z,100196.66
2022-10-17T04:37:57.769Z,100203.47
2022-10-17T04:40:26.053Z,100197.91
2022-10-17T04:42:54.059Z,100207.59
2022-10-17T04:45:27.140Z,100204.06
2022-10-17T04:47:58.721Z,100213.38
2022-10-17T04:50:26.133Z,100213.38
2022-10-17T04:53:20.320Z,100221.03
2022-10-17T04:55:47.992Z,100228.50
2022-10-17T04:58:15.966Z,100223.91
2022-10-17T05:00:44.730Z,100224.75
2022-10-17T05:03:15.877Z,100232.81
2022-10-17T05:05:43.827Z,100226.41
2022-10-17T05:08:12.654Z,100220.38
2022-10-17T05:10:41.313Z,100227.41
2022-10-17T05:13:08.792Z,100226.41
2022-10-17T05:15:37.616Z,100223.47
2022-10-17T05:18:07.277Z,100222.66
2022-10-17T05:20:35.275Z,100218.72
2022-10-17T05:23:03.377Z,100221.41
2022-10-17T05:25:35.616Z,100220.59
2022-10-17T05:28:02.977Z,100218.91
2022-10-17T05:30:35.094Z,100219.34
2022-10-17T05:33:07.598Z,100215.41
2022-10-17T05:35:35.073Z,100219.72
2022-10-17T05:38:02.720Z,100223.22
2022-10-17T05:40:32.786Z,100217.25
2022-10-17T05:43:00.147Z,100211.44
2022-10-17T05:45:27.550Z,100216.59
2022-10-17T05:47:54.920Z,100214.13
2022-10-17T05:50:25.086Z,100221.34
2022-10-17T05:53:04.323Z,100218.25
2022-10-17T05:55:35.253Z,100222.97
2022-10-17T05:58:02.979Z,100223.38
2022-10-17T06:00:35.807Z,100225.06
2022-10-17T06:03:03.306Z,100224.59
2022-10-17T06:05:31.986Z,100216.53
2022-10-17T06:08:01.911Z,100228.09
2022-10-17T06:10:31.750Z,100218.78
2022-10-17T06:12:59.741Z,100222.03
2022-10-17T06:15:27.423Z,100223.31
2022-10-17T06:18:01.065Z,100220.22
2022-10-17T06:20:28.463Z,100229.69
2022-10-17T06:22:57.202Z,100237.38
2022-10-17T06:25:38.385Z,100240.84
2022-10-17T06:28:06.314Z,100243.09
2022-10-17T06:30:33.765Z,100247.38
2022-10-17T06:33:01.167Z,100244.44
2022-10-17T06:35:29.393Z,100247.66
2022-10-17T06:37:58.833Z,100268.34
2022-10-17T06:40:26.763Z,100269.31
2022-10-17T06:42:55.166Z,100279.25
2022-10-17T06:45:39.202Z,100277.91
2022-10-17T06:48:17.233Z,100282.66
2022-10-17T06:50:52.517Z,100291.69
2022-10-17T06:53:24.930Z,100290.06
2022-10-17T06:56:12.709Z,100290.53
2022-10-17T06:58:58.716Z,100297.09
2022-10-17T07:01:31.790Z,100304.78
2022-10-17T07:04:01.119Z,100308.78
2022-10-17T07:06:29.950Z,100312.09
2022-10-17T07:09:02.594Z,100318.66
2022-10-17T07:11:30.029Z,100315.06
2022-10-17T07:13:57.409Z,100325.97
2022-10-17T07:16:24.821Z,100323.72
2022-10-17T07:19:00.475Z,100322.75
2022-10-17T07:21:27.896Z,100336.25
2022-10-17T07:23:55.472Z,100330.03
2022-10-17T07:26:24.217Z,100335.88
2022-10-17T07:28:54.950Z,100331.53
2022-10-17T07:31:31.581Z,100343.56
2022-10-17T07:34:00.392Z,100341.94
2022-10-17T07:36:28.480Z,100341.44
2022-10-17T07:38:57.161Z,100341.09
2022-10-17T07:41:27.740Z,100343.19
2022-10-17T07:43:55.352Z,100344.63
2022-10-17T07:46:28.385Z,100342.75
2022-10-17T07:48:55.868Z,100342.78
2022-10-17T07:51:23.372Z,100342.53
2022-10-17T07:53:50.692Z,100344.03
2022-10-17T07:56:18.164Z,100336.03
2022-10-17T07:58:48.103Z,100333.94
2022-10-17T08:01:16.195Z,100344.84
2022-10-17T08:03:45.036Z,100344.81
2022-10-17T08:06:13.082Z,100343.78
2022-10-17T08:08:40.573Z,100340.53
2022-10-17T08:11:09.553Z,100342.69
2022-10-17T08:13:37.701Z,100345.53
2022-10-17T08:16:08.797Z,100337.34
2022-10-17T08:18:36.352Z,100334.75
2022-10-17T08:21:06.117Z,100336.88
2022-10-17T08:23:33.613Z,100333.28
2022-10-17T08:26:01.547Z,100327.06
2022-10-17T08:28:29.407Z,100323.84
2022-10-17T08:31:03.835Z,100317.06
2022-10-17T08:33:33.159Z,100320.19
2022-10-17T08:36:00.836Z,100320.47
2022-10-17T08:38:32.126Z,100315.22
2022-10-17T08:41:06.165Z,100317.44
2022-10-17T08:43:43.856Z,100322.00
2022-10-17T08:46:11.593Z,100322.22
2022-10-17T08:48:46.312Z,100314.28
2022-10-17T08:51:16.842Z,100318.38
2022-10-17T08:54:06.398Z,100317.53
2022-10-17T08:56:48.052Z,100322.69
2022-10-17T08:59:19.466Z,100327.31
2022-10-17T09:01:49.913Z,100323.41
2022-10-17T09:04:35.671Z,100329.66
2022-10-17T09:07:07.153Z,100319.94
2022-10-17T09:09:39.416Z,100323.22
2022-10-17T09:12:16.574Z,100327.09
2022-10-17T09:14:59.614Z,100332.25
2022-10-17T09:17:35.146Z,100336.25
2022-10-17T09:20:10.956Z,100340.47
2022-10-17T09:22:42.405Z,100341.81
2022-10-17T09:25:12.837Z,100345.16
2022-10-17T09:27:42.916Z,100335.38
2022-10-17T09:30:40.510Z,100342.53
2022-10-17T09:33:28.307Z,100339.31
2022-10-17T09:36:06.335Z,100334.13
2022-10-17T09:38:39.260Z,100334.69
2022-10-17T09:41:25.585Z,100343.69
2022-10-17T09:43:57.252Z,100329.72
2022-10-17T09:46:28.285Z,100340.00
2022-10-17T09:51:29.192Z,100336.56
2022-10-17T09:53:58.373Z,100344.47
2022-10-17T09:56:25.787Z,100353.66
2022-10-17T09:58:57.082Z,100350.09
2022-10-17T10:01:26.668Z,100342.19
2022-10-17T10:04:10.585Z,100333.16
2022-10-17T10:06:39.798Z,100346.41
2022-10-17T10:09:08.117Z,100352.63
2022-10-17T10:11:49.158Z,100338.13
2022-10-17T10:14:23.141Z,100346.72
2022-10-17T10:16:51.461Z,100342.03
2022-10-17T10:19:29.266Z,100347.94
2022-10-17T10:21:59.012Z,100342.44
2022-10-17T10:24:30.830Z,100348.28
2022-10-17T10:27:00.455Z,100345.97
2022-10-17T10:29:31.106Z,100357.66
2022-10-17T10:32:08.986Z,100358.34
2022-10-17T10:34:37.273Z,100357.97
2022-10-17T10:37:07.449Z,100354.06
2022-10-17T10:39:48.277Z,100356.13
2022-10-17T10:42:22.402Z,100365.88
2022-10-17T10:44:50.573Z,100372.63
2022-10-17T10:47:23.927Z,100360.78
2022-10-17T10:49:53.473Z,100365.81
2022-10-17T10:52:29.955Z,100364.47
2022-10-17T10:55:04.730Z,100367.63
2022-10-17T10:57:34.910Z,100373.91
2022-10-17T11:00:07.272Z,100372.72
2022-10-17T11:02:38.499Z,100383.09
2022-10-17T11:05:12.840Z,100407.56
2022-10-17T11:07:45.716Z,100406.66
2022-10-17T11:10:15.510Z,100403.78
2022-10-17T11:12:46.134Z,100408.63
2022-10-17T11:15:19.519Z,100418.38
2022-10-17T11:17:53.354Z,100419.84
2022-10-17T11:20:24.746Z,100409.09
2022-10-17T11:22:57.459Z,100425.75
2022-10-17T11:25:33.088Z,100435.22
2022-10-17T11:28:04.647Z,100433.25
2022-10-17T11:33:15.754Z,100452.53
2022-10-17T11:35:46.030Z,100453.97
2022-10-17T11:38:18.708Z,100454.75
2022-10-17T11:40:48.594Z,100455.72
2022-10-17T11:43:19.524Z,100461.34
2022-10-17T11:45:48.925Z,100461.34
2022-10-17T11:48:20.006Z,100467.34
2022-10-17T11:53:47.956Z,100473.59
2022-10-17T11:56:21.214Z,100472.56
2022-10-17T11:58:53.751Z,100481.00
2022-10-17T12:01:28.678Z,100488.09
2022-10-17T12:04:14.582Z,100496.06
2022-10-17T12:06:57.516Z,100495.81
2022-10-17T12:09:37.067Z,100493.03
2022-10-17T12:12:05.224Z,100480.41
2022-10-17T12:14:38.446Z,100491.69
2022-10-17T12:17:07.022Z,100490.97
2022-10-17T12:19:35.821Z,100494.84
2022-10-17T12:22:18.702Z,100490.25
2022-10-17T12:24:58.803Z,100491.00
2022-10-17T12:27:43.496Z,100485.53
2022-10-17T12:30:25.397Z,100485.84
2022-10-17T12:33:07.521Z,100485.19
2022-10-17T12:35:36.765Z,100490.66
2022-10-17T12:38:21.604Z,100491.00
2022-10-17T12:41:01.314Z,100494.28
2022-10-17T12:43:48.342Z,100495.03
2022-10-17T12:46:54.770Z,100494.94
2022-10-17T12:49:38.726Z,100497.97
2022-10-17T12:52:29.413Z,100505.53
2022-10-17T12:55:13.788Z,100503.75
2022-10-17T12:57:48.575Z,100498.22
2022-10-17T13:00:20.475Z,100506.88
2022-10-17T13:02:48.998Z,100495.38
2022-10-17T13:05:18.903Z,100485.38
2022-10-17T13:07:46.979Z,100483.78
2022-10-17T13:10:21.379Z,100484.94
2022-10-17T13:12:50.549Z,100484.06
2022-10-17T13:15:19.637Z,100495.56
2022-10-17T13:17:56.482Z,100501.47
2022-10-17T13:20:30.568Z,100508.19
2022-10-17T13:23:02.433Z,100495.38
2022-10-17T13:25:30.094Z,100500.59
2022-10-17T13:28:13.604Z,100499.41
2022-10-17T13:30:49.479Z,100509.97
2022-10-17T13:33:28.851Z,100504.16
2022-10-17T13:36:00.456Z,100510.38
2022-10-17T13:38:32.379Z,100510.03
2022-10-17T13:41:11.045Z,100510.72
2022-10-17T13:43:49.318Z,100507.28
2022-10-17T13:46:36.667Z,100524.25
2022-10-17T13:49:12.642Z,100528.06
2022-10-17T13:51:44.252Z,100531.22
2022-10-17T13:54:33.381Z,100528.16
2022-10-17T13:57:01.704Z,100529.50
2022-10-17T13:59:35.220Z,100530.56
2022-10-17T14:02:02.712Z,100531.34
2022-10-17T14:04:40.048Z,100545.41
2022-10-17T14:07:23.136Z,100550.34
2022-10-17T14:09:50.635Z,100549.88
2022-10-17T14:12:20.219Z,100544.63
2022-10-17T14:15:14.030Z,100545.56
2022-10-17T14:17:38.508Z,100561.09
2022-10-17T14:20:47.827Z,100556.38
2022-10-17T14:23:20.857Z,100556.72
2022-10-17T14:25:42.985Z,100551.91
2022-10-17T14:28:15.579Z,100559.44
2022-10-17T14:30:56.164Z,100571.06
2022-10-17T14:33:26.720Z,100575.47
2022-10-17T14:35:56.014Z,100573.13
2022-10-17T14:38:23.755Z,100583.97
2022-10-17T14:40:53.160Z,100581.41
2022-10-17T14:43:22.722Z,100583.91
2022-10-17T14:45:51.728Z,100581.25
2022-10-17T14:48:22.893Z,100594.09
2022-10-17T14:51:08.998Z,100583.56
2022-10-17T14:53:37.279Z,100589.25
2022-10-17T14:56:06.814Z,100603.28
2022-10-17T14:58:34.842Z,100603.31
2022-10-17T15:01:04.016Z,100605.59
2022-10-17T15:03:31.433Z,100600.56
2022-10-17T15:06:00.252Z,100604.06
2022-10-17T15:08:27.613Z,100605.22
2022-10-17T15:10:54.981Z,100594.84
2022-10-17T15:13:32.147Z,100605.38
2022-10-17T15:16:03.925Z,100605.56
2022-10-17T15:18:32.242Z,100609.28
2022-10-17T15:21:05.033Z,100605.13
2022-10-17T15:23:40.189Z,100609.16
2022-10-17T15:26:15.857Z,100617.00
2022-10-17T15:28:43.766Z,100623.13
2022-10-17T15:31:17.188Z,100620.97
2022-10-17T15:33:45.274Z,100611.97
2022-10-17T15:36:24.729Z,100612.19
2022-10-17T15:38:53.633Z,100624.09
2022-10-17T15:41:21.079Z,100625.63
2022-10-17T15:43:49.082Z,100632.13
2022-10-17T15:46:21.220Z,100637.09
2022-10-17T15:48:48.616Z,100640.63
2022-10-17T15:51:16.247Z,100635.25
2022-10-17T15:53:44.150Z,100639.19
2022-10-17T15:56:20.832Z,100645.72
2022-10-17T15:58:48.458Z,100654.31
2022-10-17T16:01:23.498Z,100651.25
2022-10-17T16:03:51.545Z,100652.84
2022-10-17T16:06:20.096Z,100662.69
2022-10-17T16:08:48.021Z,100669.81
2022-10-17T16:11:19.530Z,100679.81
2022-10-17T16:13:51.283Z,100681.03
2022-10-17T16:16:19.184Z,100681.06
2022-10-17T16:18:47.894Z,100679.72
2022-10-17T16:21:16.628Z,100691.16
2022-10-17T16:23:44.625Z,100691.69
2022-10-17T16:26:14.085Z,100697.31
2022-10-17T16:28:46.084Z,100692.38
2022-10-17T16:31:19.773Z,100700.38
2022-10-17T16:33:49.352Z,100696.88
2022-10-17T16:36:16.756Z,100700.81
2022-10-17T16:38:44.239Z,100701.84
2022-10-17T16:41:22.161Z,100696.34
2022-10-17T16:43:50.318Z,100698.31
2022-10-17T16:46:17.851Z,100712.03
2022-10-17T16:48:46.214Z,100721.00
2022-10-17T16:51:16.180Z,100731.22
2022-10-17T16:53:44.379Z,100735.22
2022-10-17T16:56:13.212Z,100736.91
2022-10-17T16:58:40.743Z,100746.84
2022-10-17T17:01:10.467Z,100744.19
2022-10-17T17:03:38.564Z,100748.06
2022-10-17T17:06:07.202Z,100754.53
2022-10-17T17:08:37.116Z,100756.78
2022-10-17T17:11:06.993Z,100752.03
2022-10-17T17:13:34.764Z,100761.72
2022-10-17T17:16:06.910Z,100771.50
2022-10-17T17:18:34.351Z,100769.19
2022-10-17T17:21:02.553Z,100771.50
2022-10-17T17:23:30.907Z,100777.09
2022-10-17T17:26:00.897Z,100771.06
2022-10-17T17:28:29.216Z,100768.56
2022-10-17T17:30:56.954Z,100771.06
2022-10-17T17:33:24.981Z,100776.41
2022-10-17T17:35:55.919Z,100784.72
2022-10-17T17:38:23.372Z,100774.31
2022-10-17T17:40:51.443Z,100782.41
2022-10-17T17:43:20.323Z,100790.72
2022-10-17T17:45:48.029Z,100785.13
2022-10-17T17:48:15.514Z,100771.41
2022-10-17T17:50:43.681Z,100770.16
2022-10-17T17:53:13.234Z,100780.75
2022-10-17T17:55:40.729Z,100777.78
2022-10-17T17:58:08.402Z,100771.03
2022-10-17T18:00:37.246Z,100764.59
2022-10-17T18:03:05.477Z,100765.78
2022-10-17T18:05:32.925Z,100775.75
2022-10-17T18:08:00.553Z,100772.59
2022-10-17T18:10:28.907Z,100769.28
2022-10-17T18:12:56.433Z,100769.53
2022-10-17T18:15:23.843Z,100762.69
2022-10-17T18:17:52.540Z,100769.53
2022-10-17T18:20:20.106Z,100766.63
2022-10-17T18:22:47.475Z,100763.16
2022-10-17T18:25:14.997Z,100777.44
2022-10-17T18:27:42.498Z,100781.16
2022-10-17T18:30:10.901Z,100789.28
2022-10-17T18:32:38.411Z,100782.03
2022-10-17T18:35:07.794Z,100781.63
2022-10-17T18:37:35.225Z,100791.13
2022-10-17T18:40:03.276Z,100792.56
2022-10-17T18:42:30.926Z,100791.72
2022-10-17T18:44:58.661Z,100798.56
2022-10-17T18:47:26.009Z,100801.44
2022-10-17T18:49:53.484Z,100795.81
2022-10-17T18:52:22.142Z,100802.66
2022-10-17T18:54:49.917Z,100812.44
2022-10-17T18:57:17.367Z,100813.44
2022-10-17T18:59:44.714Z,100817.63
2022-10-17T19:02:12.887Z,100829.22
2022-10-17T19:04:40.474Z,100842.47
2022-10-17T19:07:07.938Z,100828.94
2022-10-17T19:09:36.714Z,100839.41
2022-10-17T19:12:04.569Z,100833.63
2022-10-17T19:14:32.184Z,100843.34
2022-10-17T19:17:00.455Z,100843.63
2022-10-17T19:19:27.821Z,100838.13
2022-10-17T19:21:55.186Z,100844.34
2022-10-17T19:24:25.214Z,100848.34
2022-10-17T19:26:55.446Z,100847.88
2022-10-17T19:29:24.636Z,100851.84
2022-10-17T19:31:52.594Z,100846.75
2022-10-17T19:34:20.170Z,100848.69
2022-10-17T19:36:47.549Z,100849.75
2022-10-17T19:39:16.745Z,100854.16
2022-10-17T19:41:45.100Z,100838.84
2022-10-17T19:44:14.088Z,100840.91
2022-10-17T19:46:41.465Z,100842.19
2022-10-17T19:49:08.808Z,100845.69
2022-10-17T19:51:36.245Z,100862.06
2022-10-17T19:54:03.979Z,100854.81
2022-10-17T19:56:32.779Z,100849.06
2022-10-17T19:59:00.341Z,100841.81
2022-10-17T20:01:30.548Z,100837.28
2022-10-17T20:03:58.005Z,100842.38
2022-10-17T20:06:25.596Z,100853.19
2022-10-17T20:08:53.160Z,100852.56
2022-10-17T20:11:22.038Z,100852.16
2022-10-17T20:13:50.044Z,100848.59
2022-10-17T20:16:21.157Z,100852.53
2022-10-17T20:18:50.380Z,100856.84
2022-10-17T20:21:20.149Z,100862.41
2022-10-17T20:23:47.849Z,100868.72
2022-10-17T20:29:08.152Z,100889.00
2022-10-17T20:31:35.573Z,100892.09
2022-10-17T20:34:04.527Z,100897.13
2022-10-17T20:36:32.257Z,100904.84
2022-10-17T20:39:00.288Z,100908.16
2022-10-17T20:41:28.145Z,100906.53
2022-10-17T20:43:56.249Z,100910.47
2022-10-17T20:46:36.435Z,100910.25
2022-10-17T20:49:06.812Z,100913.72
2022-10-17T20:51:34.593Z,100916.00
2022-10-17T20:54:02.432Z,100919.47
2022-10-17T20:56:31.260Z,100918.91
2022-10-17T20:58:59.866Z,100925.88
2022-10-17T21:01:27.967Z,100930.59
2022-10-17T21:03:58.895Z,100936.13
2022-10-17T21:06:29.369Z,100934.66
2022-10-17T21:08:57.332Z,100933.16
2022-10-17T21:11:26.427Z,100937.75
2022-10-17T21:13:58.357Z,100935.72
2022-10-17T21:16:27.044Z,100944.97
2022-10-17T21:18:54.508Z,100946.28
2022-10-17T21:21:23.409Z,100939.34
2022-10-17T21:23:52.118Z,100943.59
2022-10-17T21:26:20.041Z,100944.66
2022-10-17T21:28:48.560Z,100944.78
2022-10-17T21:31:17.526Z,100948.28
2022-10-17T21:33:47.437Z,100948.91
2022-10-17T21:36:16.648Z,100946.88
2022-10-17T21:38:44.742Z,100949.34
2022-10-17T21:41:14.865Z,100953.31
2022-10-17T21:43:43.082Z,100950.22
2022-10-17T21:46:12.687Z,100958.13
2022-10-17T21:48:40.088Z,100955.75
2022-10-17T21:51:09.882Z,100948.97
2022-10-17T21:53:37.666Z,100954.75
2022-10-17T21:56:06.167Z,100953.00
2022-10-17T21:58:34.916Z,100944.91
2022-10-17T22:01:07.284Z,100946.00
2022-10-17T22:03:35.239Z,100938.78
2022-10-17T22:06:12.796Z,100950.13
2022-10-17T22:08:50.459Z,100946.78
2022-10-17T22:11:19.369Z,100955.97
2022-10-17T22:13:48.308Z,100950.97
2022-10-17T22:16:17.029Z,100946.00
2022-10-17T22:18:44.425Z,100947.84
2022-10-17T22:21:16.410Z,100946.66
2022-10-17T22:23:45.029Z,100957.59
2022-10-17T22:26:12.985Z,100960.13
2022-10-17T22:28:41.120Z,100955.56
2022-10-17T22:31:10.439Z,100964.06
2022-10-17T22:33:39.293Z,100956.81
2022-10-17T22:36:07.776Z,100961.13
2022-10-17T22:38:35.389Z,100961.59
2022-10-17T22:41:02.989Z,100963.22
2022-10-17T22:43:30.357Z,100964.66
2022-10-17T22:45:59.401Z,100963.50
2022-10-17T22:48:28.777Z,100962.19
2022-10-17T22:50:57.500Z,100969.22
2022-10-17T22:53:26.446Z,100975.28
2022-10-17T22:55:54.556Z,100973.03
2022-10-17T22:58:22.182Z,100972.59
2022-10-17T23:00:50.041Z,100973.53
2022-10-17T23:03:18.423Z,100971.19
2022-10-17T23:05:47.308Z,100979.78
2022-10-17T23:08:17.749Z,100984.94
2022-10-17T23:10:45.445Z,100983.50
2022-10-17T23:13:12.972Z,100991.16
2022-10-17T23:15:40.948Z,100993.63
2022-10-17T23:18:09.666Z,100992.81
2022-10-17T23:20:37.654Z,100991.09
2022-10-17T23:23:06.402Z,100991.16
2022-10-17T23:25:34.368Z,100990.72
2022-10-17T23:28:01.791Z,100988.03
2022-10-17T23:30:29.256Z,100984.66
2022-10-17T23:32:56.725Z,100985.34
2022-10-17T23:35:24.090Z,100978.19
2022-10-17T23:37:51.425Z,100984.44
2022-10-17T23:40:20.142Z,100991.16
2022-10-17T23:42:47.532Z,100992.19
2022-10-17T23:45:14.897Z,100989.25
2022-10-17T23:47:42.340Z,100985.34
2022-10-17T23:50:09.936Z,100996.31
2022-10-17T23:52:37.245Z,100988.63
2022-10-17T23:55:05.292Z,100990.34
2022-10-17T23:57:34.438Z,100982.47
